KBVX

Batesville Regional Airport

Batesville, Arkansas, USA
METAR KBVX 141656Z AUTO 04008KT 6SM -RA BR OVC006 10/09 A2995 RMK AO2 SLPNO P0009 T01000089
Observed Flight Rules
Dec-14 @ 16:56 UTC (13 minutes ago) Instrument Flight Rules
Wind Visibility Clouds Conditions
40° at 8 knots 6 miles
  • Overcast at 600' AGL
  • Light Rain
  • Mist
Temperatures Readings Precipitation
Current 10°C / 50°F
Dewpoint 9°C / 48°F
Humidity 94%
Altimeter 29.95" Hg
Pressure 1014 hPa
Elevation 141
Current Rain 0.09
METAR KBVX 141656Z AUTO 04008KT 6SM -RA BR OVC006 10/09 A2995 RMK AO2 SLPNO P0009 T01000089
Observed Flight Rules
Dec-14 @ 16:56 UTC
(13 minutes ago)
IFR
Wind Visibility
40° at 8 knots 6 miles
Clouds
  • Overcast at 600' AGL
Conditions
  • Light Rain
  • Mist
Temperature Dewpoint
10°C / 50°F 9°C / 48°F
Humidity Altimeter Pressure
94% 29.95" Hg 1014 hPa
Current Rain
0.09